createdAt,value
2022-10-03T00:00:04.919Z,1016.34
2022-10-03T00:01:05.404Z,1016.32
2022-10-03T00:02:05.933Z,1016.39
2022-10-03T00:03:05.310Z,1016.41
2022-10-03T00:04:05.421Z,1016.35
2022-10-03T00:05:05.620Z,1016.42
2022-10-03T00:06:06.409Z,1016.45
2022-10-03T00:07:05.929Z,1016.43
2022-10-03T00:08:06.100Z,1016.48
2022-10-03T00:09:06.305Z,1016.50
2022-10-03T00:10:07.411Z,1016.53
2022-10-03T00:11:06.652Z,1016.48
2022-10-03T00:12:06.812Z,1016.50
2022-10-03T00:13:07.906Z,1016.49
2022-10-03T00:14:07.128Z,1016.48
2022-10-03T00:15:07.285Z,1016.44
2022-10-03T00:16:08.440Z,1016.44
2022-10-03T00:17:08.408Z,1016.45
2022-10-03T00:18:07.800Z,1016.55
2022-10-03T00:19:07.993Z,1016.47
2022-10-03T00:20:08.160Z,1016.47
2022-10-03T00:21:08.428Z,1016.45
2022-10-03T00:22:09.417Z,1016.45
2022-10-03T00:23:08.633Z,1016.49
2022-10-03T00:24:08.782Z,1016.47
2022-10-03T00:25:08.928Z,1016.53
2022-10-03T00:26:09.421Z,1016.47
2022-10-03T00:27:09.323Z,1016.45
2022-10-03T00:28:09.541Z,1016.53
2022-10-03T00:29:10.427Z,1016.55
2022-10-03T00:30:10.414Z,1016.55
2022-10-03T00:31:09.972Z,1016.55
2022-10-03T00:32:10.183Z,1016.57
2022-10-03T00:33:10.351Z,1016.66
2022-10-03T00:34:11.418Z,1016.60
2022-10-03T00:35:10.675Z,1016.61
2022-10-03T00:36:10.831Z,1016.62
2022-10-03T00:37:11.001Z,1016.62
2022-10-03T00:38:11.926Z,1016.61
2022-10-03T00:39:11.922Z,1016.55
2022-10-03T00:40:11.557Z,1016.62
2022-10-03T00:41:11.737Z,1016.59
2022-10-03T00:42:11.914Z,1016.56
2022-10-03T00:43:12.062Z,1016.61
2022-10-03T00:44:12.228Z,1016.58
2022-10-03T00:45:12.382Z,1016.59
2022-10-03T00:46:13.464Z,1016.63
2022-10-03T00:47:12.763Z,1016.63
2022-10-03T00:48:13.414Z,1016.57
2022-10-03T00:49:13.111Z,1016.60
2022-10-03T00:50:13.294Z,1016.67
2022-10-03T00:51:13.443Z,1016.65
2022-10-03T00:52:13.608Z,1016.62
2022-10-03T00:53:13.812Z,1016.61
2022-10-03T00:54:14.425Z,1016.65
2022-10-03T00:55:14.208Z,1016.62
2022-10-03T00:56:14.918Z,1016.65
2022-10-03T00:57:14.565Z,1016.68
2022-10-03T00:58:14.734Z,1016.61
2022-10-03T00:59:14.931Z,1016.63
2022-10-03T01:00:15.073Z,1016.70
2022-10-03T01:01:15.315Z,1016.65
2022-10-03T01:02:15.462Z,1016.62
2022-10-03T01:03:15.511Z,1016.66
2022-10-03T01:04:15.735Z,1016.62
2022-10-03T01:05:15.882Z,1016.63
2022-10-03T01:06:16.016Z,1016.58
2022-10-03T01:07:16.923Z,1016.69
2022-10-03T01:08:16.277Z,1016.61
2022-10-03T01:09:16.436Z,1016.56
2022-10-03T01:10:16.630Z,1016.58
2022-10-03T01:11:16.772Z,1016.57
2022-10-03T01:12:16.889Z,1016.60
2022-10-03T01:13:17.951Z,1016.60
2022-10-03T01:14:17.213Z,1016.56
2022-10-03T01:15:17.951Z,1016.59
2022-10-03T01:16:17.627Z,1016.56
2022-10-03T01:17:18.429Z,1016.52
2022-10-03T01:18:17.927Z,1016.58
2022-10-03T01:19:18.065Z,1016.57
2022-10-03T01:20:18.211Z,1016.61
2022-10-03T01:21:18.367Z,1016.56
2022-10-03T01:22:18.503Z,1016.60
2022-10-03T01:23:18.619Z,1016.60
2022-10-03T01:24:18.861Z,1016.59
2022-10-03T01:25:19.004Z,1016.54
2022-10-03T01:26:19.440Z,1016.62
2022-10-03T01:27:19.334Z,1016.58
2022-10-03T01:28:19.467Z,1016.56
2022-10-03T01:29:19.664Z,1016.53
2022-10-03T01:30:20.435Z,1016.57
2022-10-03T01:31:20.052Z,1016.55
2022-10-03T01:32:20.131Z,1016.58
2022-10-03T01:33:20.251Z,1016.58
2022-10-03T01:34:20.944Z,1016.64
2022-10-03T01:35:20.703Z,1016.57
2022-10-03T01:36:20.845Z,1016.56
2022-10-03T01:37:21.926Z,1016.58
2022-10-03T01:38:22.155Z,1016.62
2022-10-03T01:39:21.453Z,1016.59
2022-10-03T01:40:21.449Z,1016.57
2022-10-03T01:41:21.584Z,1016.55
2022-10-03T01:42:21.716Z,1016.63
2022-10-03T01:43:21.851Z,1016.59
2022-10-03T01:44:21.975Z,1016.56
2022-10-03T01:45:22.111Z,1016.56
2022-10-03T01:46:22.334Z,1016.52
2022-10-03T01:47:22.379Z,1016.55
2022-10-03T01:48:22.947Z,1016.56
2022-10-03T01:49:22.684Z,1016.55
2022-10-03T01:50:22.831Z,1016.53
2022-10-03T01:51:22.985Z,1016.50
2022-10-03T01:52:23.124Z,1016.56
2022-10-03T01:53:23.257Z,1016.60
2022-10-03T01:54:23.412Z,1016.54
2022-10-03T01:55:24.436Z,1016.52
2022-10-03T01:56:23.663Z,1016.54
2022-10-03T01:57:23.945Z,1016.54
2022-10-03T01:58:23.972Z,1016.53
2022-10-03T01:59:24.933Z,1016.51
2022-10-03T02:00:24.315Z,1016.53
2022-10-03T02:01:25.024Z,1016.55
2022-10-03T02:02:24.621Z,1016.47
2022-10-03T02:03:24.719Z,1016.49
2022-10-03T02:04:24.838Z,1016.56
2022-10-03T02:05:25.078Z,1016.55
2022-10-03T02:06:25.940Z,1016.50
2022-10-03T02:07:25.411Z,1016.50
2022-10-03T02:08:25.554Z,1016.55
2022-10-03T02:09:25.708Z,1016.54
2022-10-03T02:10:26.441Z,1016.52
2022-10-03T02:11:25.959Z,1016.55
2022-10-03T02:12:26.954Z,1016.62
2022-10-03T02:13:26.283Z,1016.62
2022-10-03T02:14:26.431Z,1016.61
2022-10-03T02:15:26.547Z,1016.58
2022-10-03T02:16:26.719Z,1016.65
2022-10-03T02:17:26.849Z,1016.67
2022-10-03T02:18:26.970Z,1016.66
2022-10-03T02:19:27.937Z,1016.68
2022-10-03T02:20:27.456Z,1016.66
2022-10-03T02:21:27.447Z,1016.71
2022-10-03T02:22:27.573Z,1016.74
2022-10-03T02:23:27.690Z,1016.71
2022-10-03T02:24:27.814Z,1016.74
2022-10-03T02:25:28.454Z,1016.74
2022-10-03T02:26:28.943Z,1016.64
2022-10-03T02:27:28.300Z,1016.68
2022-10-03T02:28:28.485Z,1016.69
2022-10-03T02:29:28.633Z,1016.72
2022-10-03T02:30:28.786Z,1016.74
2022-10-03T02:31:28.980Z,1016.69
2022-10-03T02:32:29.932Z,1016.76
2022-10-03T02:33:30.947Z,1016.73
2022-10-03T02:34:29.943Z,1016.81
2022-10-03T02:35:29.957Z,1016.77
2022-10-03T02:36:29.696Z,1016.85
2022-10-03T02:37:29.814Z,1016.76
2022-10-03T02:38:30.455Z,1016.85
2022-10-03T02:39:30.181Z,1016.86
2022-10-03T02:40:30.464Z,1016.85
2022-10-03T02:41:30.506Z,1016.81
2022-10-03T02:42:30.968Z,1016.83
2022-10-03T02:43:30.847Z,1016.93
2022-10-03T02:44:30.969Z,1016.88
2022-10-03T02:45:31.102Z,1016.81
2022-10-03T02:46:31.947Z,1016.87
2022-10-03T02:47:31.432Z,1016.85
2022-10-03T02:48:32.543Z,1016.86
2022-10-03T02:49:33.452Z,1016.89
2022-10-03T02:50:31.926Z,1016.92
2022-10-03T02:51:32.081Z,1016.89
2022-10-03T02:52:32.194Z,1016.92
2022-10-03T02:53:32.320Z,1016.88
2022-10-03T02:54:32.563Z,1016.96
2022-10-03T02:55:32.964Z,1017.00
2022-10-03T02:56:33.951Z,1016.95
2022-10-03T02:57:33.949Z,1016.93
2022-10-03T02:58:33.303Z,1016.92
2022-10-03T02:59:33.438Z,1016.93
2022-10-03T03:00:33.609Z,1016.94
2022-10-03T03:01:33.744Z,1016.88
2022-10-03T03:02:33.998Z,1016.99
2022-10-03T03:03:34.954Z,1016.93
2022-10-03T03:04:34.187Z,1016.97
2022-10-03T03:05:34.310Z,1016.96
2022-10-03T03:06:34.447Z,1016.96
2022-10-03T03:07:34.590Z,1016.96
2022-10-03T03:08:34.712Z,1017.01
2022-10-03T03:09:34.858Z,1016.99
2022-10-03T03:10:34.972Z,1016.97
2022-10-03T03:11:35.126Z,1017.03
2022-10-03T03:12:39.137Z,1016.97
2022-10-03T03:13:37.502Z,1016.98
2022-10-03T03:14:35.686Z,1016.95
2022-10-03T03:15:36.457Z,1016.95
2022-10-03T03:16:36.150Z,1017.03
2022-10-03T03:17:36.179Z,1016.96
2022-10-03T03:18:36.295Z,1017.00
2022-10-03T03:19:36.541Z,1016.95
2022-10-03T03:20:36.659Z,1017.02
2022-10-03T03:21:37.118Z,1016.96
2022-10-03T03:22:37.955Z,1016.98
2022-10-03T03:23:37.957Z,1016.99
2022-10-03T03:24:37.287Z,1016.96
2022-10-03T03:25:37.526Z,1016.99
2022-10-03T03:26:37.674Z,1016.92
2022-10-03T03:27:37.828Z,1017.05
2022-10-03T03:28:37.983Z,1016.97
2022-10-03T03:29:38.104Z,1017.00
2022-10-03T03:30:39.236Z,1017.00
2022-10-03T03:31:38.880Z,1017.00
2022-10-03T03:32:38.717Z,1017.00
2022-10-03T03:33:38.971Z,1017.06
2022-10-03T03:34:39.958Z,1017.02
2022-10-03T03:35:39.186Z,1017.05
2022-10-03T03:36:39.993Z,1017.02
2022-10-03T03:37:40.004Z,1017.15
2022-10-03T03:38:39.624Z,1017.01
2022-10-03T03:39:40.458Z,1017.01
2022-10-03T03:40:39.957Z,1017.07
2022-10-03T03:41:42.028Z,1017.09
2022-10-03T03:42:40.963Z,1017.11
2022-10-03T03:43:40.472Z,1017.09
2022-10-03T03:44:40.614Z,1017.06
2022-10-03T03:45:41.542Z,1017.05
2022-10-03T03:46:40.967Z,1017.07
2022-10-03T03:47:41.120Z,1017.03
2022-10-03T03:48:41.963Z,1017.03
2022-10-03T03:49:41.462Z,1017.00
2022-10-03T03:50:41.594Z,1017.10
2022-10-03T03:51:42.847Z,1017.12
2022-10-03T03:52:41.969Z,1017.10
2022-10-03T03:53:42.117Z,1017.09
2022-10-03T03:54:42.274Z,1017.07
2022-10-03T03:55:42.477Z,1017.08
2022-10-03T03:56:43.638Z,1017.03
2022-10-03T03:57:42.762Z,1017.04
2022-10-03T03:58:42.948Z,1017.07
2022-10-03T03:59:43.108Z,1016.99
2022-10-03T04:00:43.336Z,1017.04
2022-10-03T04:01:43.948Z,1017.08
2022-10-03T04:02:43.664Z,1017.08
2022-10-03T04:03:43.805Z,1017.11
2022-10-03T04:04:43.964Z,1017.05
2022-10-03T04:05:44.969Z,1017.06
2022-10-03T04:06:44.357Z,1017.10
2022-10-03T04:07:44.505Z,1017.10
2022-10-03T04:08:44.620Z,1017.12
2022-10-03T04:09:44.772Z,1017.09
2022-10-03T04:10:44.912Z,1017.10
2022-10-03T04:11:45.063Z,1017.12
2022-10-03T04:12:45.477Z,1017.17
2022-10-03T04:13:45.502Z,1017.11
2022-10-03T04:14:46.504Z,1017.18
2022-10-03T04:15:46.469Z,1017.20
2022-10-03T04:16:46.076Z,1017.23
2022-10-03T04:17:46.969Z,1017.27
2022-10-03T04:18:46.375Z,1017.22
2022-10-03T04:19:46.524Z,1017.16
2022-10-03T04:20:47.508Z,1017.26
2022-10-03T04:21:46.905Z,1017.27
2022-10-03T04:22:47.088Z,1017.28
2022-10-03T04:23:47.250Z,1017.22
2022-10-03T04:24:47.429Z,1017.27
2022-10-03T04:25:47.980Z,1017.32
2022-10-03T04:26:47.722Z,1017.28
2022-10-03T04:27:47.909Z,1017.33
2022-10-03T04:28:48.100Z,1017.30
2022-10-03T04:29:48.246Z,1017.36
2022-10-03T04:30:48.449Z,1017.34
2022-10-03T04:31:48.651Z,1017.31
2022-10-03T04:32:48.782Z,1017.34
2022-10-03T04:33:48.922Z,1017.32
2022-10-03T04:34:49.990Z,1017.34
2022-10-03T04:35:49.243Z,1017.27
2022-10-03T04:36:49.969Z,1017.36
2022-10-03T04:37:50.585Z,1017.33
2022-10-03T04:38:49.831Z,1017.35
2022-10-03T04:39:49.941Z,1017.32
2022-10-03T04:40:50.067Z,1017.30
2022-10-03T04:41:50.518Z,1017.29
2022-10-03T04:42:50.448Z,1017.33
2022-10-03T04:43:50.598Z,1017.26
2022-10-03T04:44:50.739Z,1017.24
2022-10-03T04:45:50.969Z,1017.26
2022-10-03T04:46:51.012Z,1017.25
2022-10-03T04:47:51.139Z,1017.34
2022-10-03T04:48:51.487Z,1017.21
2022-10-03T04:49:51.478Z,1017.27
2022-10-03T04:50:51.628Z,1017.20
2022-10-03T04:51:55.506Z,1017.20
2022-10-03T04:52:52.931Z,1017.20
2022-10-03T04:53:52.217Z,1017.18
2022-10-03T04:54:52.342Z,1017.17
2022-10-03T04:55:52.979Z,1017.19
2022-10-03T04:56:52.690Z,1017.18
2022-10-03T04:57:52.807Z,1017.21
2022-10-03T04:58:52.993Z,1017.27
2022-10-03T04:59:53.138Z,1017.23
2022-10-03T05:00:54.076Z,1017.27
2022-10-03T05:01:54.031Z,1017.32
2022-10-03T05:02:53.674Z,1017.26
2022-10-03T05:03:53.818Z,1017.33
2022-10-03T05:04:55.720Z,1017.21
2022-10-03T05:05:55.491Z,1017.25
2022-10-03T05:06:54.239Z,1017.25
2022-10-03T05:07:54.395Z,1017.29
2022-10-03T05:08:54.539Z,1017.24
2022-10-03T05:09:54.667Z,1017.29
2022-10-03T05:10:54.853Z,1017.28
2022-10-03T05:11:54.979Z,1017.28
2022-10-03T05:12:55.982Z,1017.33
2022-10-03T05:13:55.338Z,1017.35
2022-10-03T05:14:55.496Z,1017.28
2022-10-03T05:15:56.483Z,1017.36
2022-10-03T05:16:55.912Z,1017.36
2022-10-03T05:17:56.048Z,1017.31
2022-10-03T05:18:56.303Z,1017.35
2022-10-03T05:19:56.521Z,1017.34
2022-10-03T05:20:57.494Z,1017.39
2022-10-03T05:21:56.993Z,1017.32
2022-10-03T05:22:57.119Z,1017.35
2022-10-03T05:23:57.235Z,1017.33
2022-10-03T05:24:57.364Z,1017.37
2022-10-03T05:26:06.243Z,1017.36
2022-10-03T05:26:59.734Z,1017.38
2022-10-03T05:27:58.517Z,1017.41
2022-10-03T05:28:58.019Z,1017.41
2022-10-03T05:29:58.159Z,1017.41
2022-10-03T05:30:59.001Z,1017.37
2022-10-03T05:31:59.546Z,1017.41
2022-10-03T05:32:58.675Z,1017.36
2022-10-03T05:33:58.803Z,1017.49
2022-10-03T05:34:58.954Z,1017.43
2022-10-03T05:35:59.090Z,1017.39
2022-10-03T05:36:59.238Z,1017.43
2022-10-03T05:37:59.554Z,1017.46
2022-10-03T05:39:00.489Z,1017.45
2022-10-03T05:40:00.489Z,1017.45
2022-10-03T05:41:00.493Z,1017.44
2022-10-03T05:42:21.449Z,1017.45
2022-10-03T05:43:02.374Z,1017.44
2022-10-03T05:44:00.478Z,1017.48
2022-10-03T05:45:00.635Z,1017.43
2022-10-03T05:46:01.568Z,1017.49
2022-10-03T05:47:00.965Z,1017.45
2022-10-03T05:48:01.131Z,1017.39
2022-10-03T05:49:01.993Z,1017.46
2022-10-03T05:50:01.504Z,1017.53
2022-10-03T05:51:01.626Z,1017.50
2022-10-03T05:52:01.788Z,1017.43
2022-10-03T05:53:02.499Z,1017.54
2022-10-03T05:54:02.996Z,1017.51
2022-10-03T05:55:02.238Z,1017.47
2022-10-03T05:56:03.001Z,1017.45
2022-10-03T05:57:02.515Z,1017.46
2022-10-03T05:58:02.648Z,1017.46
2022-10-03T05:59:02.797Z,1017.46
2022-10-03T06:00:02.962Z,1017.43
2022-10-03T06:01:03.092Z,1017.43
2022-10-03T06:02:04.065Z,1017.41
2022-10-03T06:03:03.721Z,1017.38
2022-10-03T06:04:06.118Z,1017.40
2022-10-03T06:05:04.938Z,1017.44
2022-10-03T06:06:04.149Z,1017.46
2022-10-03T06:07:04.268Z,1017.50
2022-10-03T06:08:04.995Z,1017.44
2022-10-03T06:09:04.631Z,1017.44
2022-10-03T06:10:04.752Z,1017.44
2022-10-03T06:11:04.901Z,1017.50
2022-10-03T06:12:05.044Z,1017.50
2022-10-03T06:13:05.151Z,1017.49
2022-10-03T06:14:05.308Z,1017.50
2022-10-03T06:15:05.999Z,1017.51
2022-10-03T06:16:06.533Z,1017.52
2022-10-03T06:17:05.783Z,1017.56
2022-10-03T06:18:05.900Z,1017.52
2022-10-03T06:19:06.197Z,1017.59
2022-10-03T06:20:06.308Z,1017.56
2022-10-03T06:21:06.532Z,1017.57
2022-10-03T06:22:06.775Z,1017.57
2022-10-03T06:23:08.007Z,1017.53
2022-10-03T06:24:07.244Z,1017.60
2022-10-03T06:25:07.513Z,1017.50
2022-10-03T06:26:07.517Z,1017.56
2022-10-03T06:27:07.654Z,1017.58
2022-10-03T06:28:07.857Z,1017.56
2022-10-03T06:29:07.909Z,1017.55
2022-10-03T06:30:09.005Z,1017.55
2022-10-03T06:31:08.274Z,1017.52
2022-10-03T06:32:08.511Z,1017.57
2022-10-03T06:33:08.628Z,1017.56
2022-10-03T06:34:08.796Z,1017.60
2022-10-03T06:35:09.014Z,1017.53
2022-10-03T06:36:10.003Z,1017.50
2022-10-03T06:37:09.380Z,1017.51
2022-10-03T06:38:10.024Z,1017.52
2022-10-03T06:39:09.643Z,1017.49
2022-10-03T06:40:10.511Z,1017.50
2022-10-03T06:41:09.976Z,1017.53
2022-10-03T06:42:10.098Z,1017.55
2022-10-03T06:43:10.247Z,1017.54
2022-10-03T06:44:10.374Z,1017.47
2022-10-03T06:45:10.506Z,1017.48
2022-10-03T06:46:10.657Z,1017.48
2022-10-03T06:47:11.511Z,1017.49
2022-10-03T06:48:11.148Z,1017.42
2022-10-03T06:49:11.267Z,1017.36
2022-10-03T06:50:11.509Z,1017.49
2022-10-03T06:51:11.647Z,1017.46
2022-10-03T06:52:11.785Z,1017.37
2022-10-03T06:53:12.511Z,1017.37
2022-10-03T06:54:12.524Z,1017.40
2022-10-03T06:55:12.292Z,1017.34
2022-10-03T06:56:12.472Z,1017.43
2022-10-03T06:57:13.510Z,1017.37
2022-10-03T06:58:12.731Z,1017.35
2022-10-03T06:59:13.030Z,1017.39
2022-10-03T07:00:13.522Z,1017.34
2022-10-03T07:01:13.332Z,1017.36
2022-10-03T07:02:13.537Z,1017.41
2022-10-03T07:03:14.515Z,1017.35
2022-10-03T07:04:13.905Z,1017.35
2022-10-03T07:05:14.052Z,1017.31
2022-10-03T07:06:14.180Z,1017.38
2022-10-03T07:07:14.419Z,1017.33
2022-10-03T07:08:14.567Z,1017.34
2022-10-03T07:09:14.692Z,1017.33
2022-10-03T07:10:15.513Z,1017.29
2022-10-03T07:11:15.030Z,1017.31
2022-10-03T07:12:16.012Z,1017.33
2022-10-03T07:13:15.395Z,1017.28
2022-10-03T07:14:15.537Z,1017.24
2022-10-03T07:15:16.529Z,1017.25
2022-10-03T07:16:31.239Z,1017.27
2022-10-03T07:17:19.104Z,1017.28
2022-10-03T07:18:16.373Z,1017.26
2022-10-03T07:19:16.529Z,1017.25
2022-10-03T07:20:16.683Z,1017.26
2022-10-03T07:21:17.558Z,1017.18
2022-10-03T07:22:16.937Z,1017.20
2022-10-03T07:23:17.083Z,1017.21
2022-10-03T07:24:17.232Z,1017.17
2022-10-03T07:25:17.503Z,1017.20
2022-10-03T07:26:17.618Z,1017.17
2022-10-03T07:27:18.517Z,1017.13
2022-10-03T07:28:18.583Z,1017.10
2022-10-03T07:29:18.070Z,1017.09
2022-10-03T07:30:18.320Z,1017.06
2022-10-03T07:31:18.618Z,1017.09
2022-10-03T07:32:18.683Z,1017.02
2022-10-03T07:33:19.517Z,1017.01
2022-10-03T07:34:19.517Z,1016.95
2022-10-03T07:35:19.106Z,1016.95
2022-10-03T07:36:19.334Z,1016.94
2022-10-03T07:37:19.583Z,1016.97
2022-10-03T07:38:20.556Z,1016.89
2022-10-03T07:39:20.016Z,1016.84
2022-10-03T07:40:20.252Z,1016.87
2022-10-03T07:41:20.481Z,1016.91
2022-10-03T07:42:20.615Z,1016.91
2022-10-03T07:43:20.731Z,1016.93
2022-10-03T07:44:20.992Z,1016.97
2022-10-03T07:45:21.122Z,1016.93
2022-10-03T07:46:22.050Z,1016.99
2022-10-03T07:47:22.044Z,1017.03
2022-10-03T07:48:22.525Z,1016.95
2022-10-03T07:49:22.000Z,1016.96
2022-10-03T07:50:22.584Z,1016.98
2022-10-03T07:51:22.373Z,1016.92
2022-10-03T07:52:22.489Z,1016.86
2022-10-03T07:53:22.655Z,1016.78
2022-10-03T07:54:22.834Z,1016.82
2022-10-03T07:55:23.530Z,1016.77
2022-10-03T07:56:23.155Z,1016.72
2022-10-03T07:57:24.023Z,1016.63
2022-10-03T07:58:23.580Z,1016.57
2022-10-03T07:59:23.726Z,1016.51
2022-10-03T08:00:23.877Z,1016.38
2022-10-03T08:01:24.005Z,1016.15
2022-10-03T08:02:24.216Z,1016.01
2022-10-03T08:03:24.316Z,1015.88
2022-10-03T08:04:24.541Z,1015.79
2022-10-03T08:05:24.689Z,1015.71
2022-10-03T08:06:24.825Z,1015.65
2022-10-03T08:07:24.953Z,1015.60
2022-10-03T08:08:25.083Z,1015.37
2022-10-03T08:09:25.220Z,1014.93
2022-10-03T08:10:25.338Z,1014.65
2022-10-03T08:11:25.537Z,1014.37
2022-10-03T08:12:25.647Z,1014.11
2022-10-03T08:13:25.885Z,1013.93
2022-10-03T08:14:26.111Z,1013.78
2022-10-03T08:15:26.543Z,1013.20
2022-10-03T08:16:26.403Z,1012.75
2022-10-03T08:17:26.647Z,1012.55
2022-10-03T08:18:27.532Z,1012.47
2022-10-03T08:19:27.532Z,1012.46
2022-10-03T08:20:27.156Z,1012.84
2022-10-03T08:21:27.322Z,1012.97
2022-10-03T08:22:27.458Z,1013.12
2022-10-03T08:23:27.580Z,1013.24
2022-10-03T08:24:27.716Z,1013.34
2022-10-03T08:25:27.844Z,1013.52
2022-10-03T08:26:28.006Z,1013.58
2022-10-03T08:27:28.135Z,1013.21
2022-10-03T08:28:28.337Z,1012.75
2022-10-03T08:29:28.440Z,1012.38
2022-10-03T08:30:28.556Z,1012.33
2022-10-03T08:31:29.572Z,1012.34
2022-10-03T08:32:28.864Z,1012.34
2022-10-03T08:33:29.565Z,1012.36
2022-10-03T08:34:29.170Z,1012.39
2022-10-03T08:35:30.041Z,1012.41
2022-10-03T08:36:29.535Z,1012.40
2022-10-03T08:37:29.688Z,1012.32
2022-10-03T08:38:29.836Z,1012.08
2022-10-03T08:39:30.538Z,1011.91
2022-10-03T08:40:30.181Z,1011.75
2022-10-03T08:41:30.422Z,1011.63
2022-10-03T08:42:31.053Z,1011.34
2022-10-03T08:43:30.818Z,1011.18
2022-10-03T08:44:31.068Z,1010.92
2022-10-03T08:45:32.043Z,1010.72
2022-10-03T08:46:32.082Z,1010.61
2022-10-03T08:47:31.545Z,1010.49
2022-10-03T08:48:31.702Z,1010.56
2022-10-03T08:49:32.874Z,1010.43
2022-10-03T08:50:32.568Z,1010.42
2022-10-03T08:51:32.219Z,1010.53
2022-10-03T08:52:32.432Z,1010.70
2022-10-03T08:53:32.581Z,1010.81
2022-10-03T08:54:32.764Z,1010.95
2022-10-03T08:55:32.919Z,1011.07
2022-10-03T08:56:33.154Z,1011.11
2022-10-03T08:57:34.047Z,1011.27
2022-10-03T08:58:34.043Z,1011.48
2022-10-03T08:59:34.064Z,1011.66
2022-10-03T09:00:33.699Z,1011.94
2022-10-03T09:01:33.973Z,1012.09
2022-10-03T09:02:34.078Z,1012.31
2022-10-03T09:03:39.152Z,1012.51
2022-10-03T09:04:36.560Z,1012.74
2022-10-03T09:05:35.581Z,1012.96
2022-10-03T09:06:35.550Z,1013.12
2022-10-03T09:07:35.099Z,1013.34
2022-10-03T09:08:35.249Z,1013.50
2022-10-03T09:09:37.052Z,1013.72
2022-10-03T09:10:35.544Z,1013.79
2022-10-03T09:11:35.718Z,1013.95
2022-10-03T09:12:36.063Z,1014.03
2022-10-03T09:13:36.120Z,1014.25
2022-10-03T09:14:37.110Z,1014.30
2022-10-03T09:15:36.498Z,1014.41
2022-10-03T09:16:36.951Z,1014.60
2022-10-03T09:17:36.813Z,1014.64
2022-10-03T09:18:37.561Z,1014.81
2022-10-03T09:19:37.185Z,1014.96
2022-10-03T09:20:37.373Z,1015.00
2022-10-03T09:21:59.457Z,1015.12
2022-10-03T09:22:37.665Z,1015.15
2022-10-03T09:23:37.831Z,1015.40
2022-10-03T09:24:38.558Z,1015.43
2022-10-03T09:25:38.200Z,1015.49
2022-10-03T09:26:38.704Z,1015.57
2022-10-03T09:27:39.097Z,1015.62
2022-10-03T09:28:39.641Z,1015.71
2022-10-03T09:29:38.933Z,1015.71
2022-10-03T09:30:39.175Z,1015.77
2022-10-03T09:31:39.670Z,1015.57
2022-10-03T09:32:39.413Z,1015.43
2022-10-03T09:33:40.562Z,1015.24
2022-10-03T09:34:39.698Z,1015.04
2022-10-03T09:35:39.863Z,1014.96
2022-10-03T09:36:40.037Z,1014.97
2022-10-03T09:37:40.188Z,1014.98
2022-10-03T09:38:40.361Z,1015.01
2022-10-03T09:39:40.508Z,1014.89
2022-10-03T09:40:40.656Z,1014.86
2022-10-03T09:41:41.093Z,1014.87
2022-10-03T09:42:40.962Z,1015.01
2022-10-03T09:43:41.129Z,1015.04
2022-10-03T09:44:42.062Z,1015.10
2022-10-03T09:45:42.073Z,1015.20
2022-10-03T09:46:45.650Z,1015.32
2022-10-03T09:47:42.802Z,1015.44
2022-10-03T09:48:42.067Z,1015.55
2022-10-03T09:49:42.190Z,1015.62
2022-10-03T09:50:42.318Z,1015.74
2022-10-03T09:51:43.354Z,1015.85
2022-10-03T09:52:42.698Z,1015.83
2022-10-03T09:53:42.862Z,1015.97
2022-10-03T09:54:42.974Z,1016.04
2022-10-03T09:55:43.200Z,1016.01
2022-10-03T09:56:43.501Z,1016.14
2022-10-03T09:57:43.609Z,1016.16
2022-10-03T09:58:43.889Z,1016.15
2022-10-03T09:59:44.006Z,1016.24
2022-10-03T10:00:44.260Z,1016.30
2022-10-03T10:01:44.425Z,1016.27
2022-10-03T10:02:45.074Z,1016.20
2022-10-03T10:03:44.854Z,1016.17
2022-10-03T10:04:57.857Z,1015.99
2022-10-03T10:05:47.593Z,1015.69
2022-10-03T10:06:45.269Z,1015.54
2022-10-03T10:07:45.388Z,1015.37
2022-10-03T10:08:46.076Z,1015.35
2022-10-03T10:09:45.674Z,1015.26
2022-10-03T10:10:45.820Z,1015.28
2022-10-03T10:11:45.945Z,1015.23
2022-10-03T10:12:46.099Z,1015.25
2022-10-03T10:14:06.828Z,1015.38
2022-10-03T10:14:48.391Z,1015.42
2022-10-03T10:15:47.646Z,1015.38
2022-10-03T10:16:48.320Z,1015.51
2022-10-03T10:17:47.995Z,1015.44
2022-10-03T10:18:47.117Z,1015.47
2022-10-03T10:19:47.252Z,1015.54
2022-10-03T10:20:47.399Z,1015.50
2022-10-03T10:21:48.077Z,1015.49
2022-10-03T10:22:48.577Z,1015.48
2022-10-03T10:23:48.100Z,1015.40
2022-10-03T10:24:48.154Z,1015.37
2022-10-03T10:25:49.078Z,1015.20
2022-10-03T10:26:48.467Z,1015.03
2022-10-03T10:27:49.627Z,1014.72
2022-10-03T10:28:48.780Z,1014.61
2022-10-03T10:29:48.951Z,1014.44
2022-10-03T10:30:50.081Z,1014.30
2022-10-03T10:31:49.447Z,1014.28
2022-10-03T10:32:49.525Z,1014.29
2022-10-03T10:33:49.677Z,1014.28
2022-10-03T10:34:49.853Z,1014.29
2022-10-03T10:35:49.999Z,1014.41
2022-10-03T10:36:50.180Z,1014.46
2022-10-03T10:37:51.084Z,1014.54
2022-10-03T10:38:50.466Z,1014.64
2022-10-03T10:39:50.581Z,1014.69
2022-10-03T10:40:50.731Z,1014.79
2022-10-03T10:41:51.915Z,1014.86
2022-10-03T10:42:51.031Z,1014.95
2022-10-03T10:43:51.211Z,1015.13
2022-10-03T10:44:51.372Z,1015.20
2022-10-03T10:45:51.542Z,1015.26
2022-10-03T10:46:52.828Z,1015.38
2022-10-03T10:47:51.938Z,1015.39
2022-10-03T10:48:52.087Z,1015.54
2022-10-03T10:49:52.242Z,1015.56
2022-10-03T10:50:52.413Z,1015.64
2022-10-03T10:51:52.564Z,1015.70
2022-10-03T10:52:52.742Z,1015.79
2022-10-03T10:53:52.902Z,1015.87
2022-10-03T10:54:53.055Z,1015.84
2022-10-03T10:55:53.190Z,1015.89
2022-10-03T10:56:54.114Z,1016.00
2022-10-03T10:57:53.472Z,1015.99
2022-10-03T10:58:53.624Z,1015.97
2022-10-03T10:59:53.753Z,1016.01
2022-10-03T11:00:54.669Z,1016.03
2022-10-03T11:01:54.065Z,1016.02
2022-10-03T11:02:55.091Z,1015.95
2022-10-03T11:03:54.464Z,1016.07
2022-10-03T11:04:54.640Z,1016.08
2022-10-03T11:05:54.784Z,1016.01
2022-10-03T11:06:56.040Z,1016.00
2022-10-03T11:07:55.602Z,1015.96
2022-10-03T11:08:55.468Z,1015.90
2022-10-03T11:09:55.596Z,1015.75
2022-10-03T11:10:55.718Z,1015.69
2022-10-03T11:11:55.849Z,1015.63
2022-10-03T11:12:56.002Z,1015.62
2022-10-03T11:13:57.094Z,1015.46
2022-10-03T11:14:57.097Z,1015.42
2022-10-03T11:15:57.143Z,1015.43
2022-10-03T11:16:56.668Z,1015.34
2022-10-03T11:17:56.923Z,1015.27
2022-10-03T11:18:57.045Z,1015.23
2022-10-03T11:19:57.163Z,1015.16
2022-10-03T11:20:57.300Z,1015.13
2022-10-03T11:21:57.610Z,1015.16
2022-10-03T11:23:01.120Z,1015.01
2022-10-03T11:23:59.817Z,1014.88
2022-10-03T11:24:58.021Z,1014.81
2022-10-03T11:25:58.174Z,1014.72
2022-10-03T11:26:58.331Z,1014.91
2022-10-03T11:27:58.549Z,1014.86
2022-10-03T11:28:58.607Z,1014.87
2022-10-03T11:29:59.600Z,1014.84
2022-10-03T11:30:58.994Z,1014.79
2022-10-03T11:31:59.176Z,1014.79
2022-10-03T11:32:59.384Z,1014.65
2022-10-03T11:33:59.669Z,1014.66
2022-10-03T11:34:59.720Z,1014.59
2022-10-03T11:35:59.884Z,1014.68
2022-10-03T11:37:00.031Z,1014.68
2022-10-03T11:38:00.295Z,1014.66
2022-10-03T11:39:00.445Z,1014.63
2022-10-03T11:40:00.579Z,1014.61
2022-10-03T11:41:00.725Z,1014.64
2022-10-03T11:42:00.871Z,1014.51
2022-10-03T11:43:01.601Z,1014.46
2022-10-03T11:44:02.102Z,1014.44
2022-10-03T11:45:03.129Z,1014.39
2022-10-03T11:46:01.708Z,1014.34
2022-10-03T11:47:01.725Z,1014.50
2022-10-03T11:48:01.856Z,1014.43
2022-10-03T11:49:01.988Z,1014.51
2022-10-03T11:50:02.605Z,1014.51
2022-10-03T11:51:03.105Z,1014.56
2022-10-03T11:52:02.446Z,1014.54
2022-10-03T11:53:02.629Z,1014.56
2022-10-03T11:54:26.365Z,1014.56
2022-10-03T11:55:04.931Z,1014.57
2022-10-03T11:56:03.610Z,1014.58
2022-10-03T11:57:03.228Z,1014.71
2022-10-03T11:58:03.408Z,1014.70
2022-10-03T11:59:03.554Z,1014.77
2022-10-03T12:00:04.694Z,1014.76
2022-10-03T12:01:04.124Z,1014.68
2022-10-03T12:02:04.065Z,1014.72
2022-10-03T12:03:04.342Z,1014.74
2022-10-03T12:04:04.496Z,1014.73
2022-10-03T12:05:04.631Z,1014.84
2022-10-03T12:06:04.770Z,1014.86
2022-10-03T12:07:05.611Z,1014.86